Time;durP1;ratioP1;P1;durP2;ratioP2;P2;SDS_P1;SDS_P2;PMS_P1;PMS_P2;Temp;Humidity;BMP_temperature;BMP_pressure;BME280_temperature;BME280_humidity;BME280_pressure;Samples;Min_cycle;Max_cycle;Signal;HPM_P1;HPM_P2
2022/02/17 00:00:42;;;;;;;3.35;2.05;;;;;;;11.27;52.88;97599.38;5094878;28;20044;-68
2022/02/17 00:03:10;;;;;;;2.38;1.77;;;;;;;11.22;52.92;97587.72;5095628;28;20056;-68
2022/02/17 00:05:38;;;;;;;3.45;2.40;;;;;;;11.19;53.04;97594.19;5098149;28;20565;-67
2022/02/17 00:08:05;;;;;;;2.92;2.28;;;;;;;11.17;53.31;97585.63;5103779;28;20403;-68
2022/02/17 00:10:36;;;;;;;4.03;2.20;;;;;;;11.16;53.21;97570.75;5087295;28;20131;-67
2022/02/17 00:13:05;;;;;;;3.83;2.42;;;;;;;11.13;53.27;97571.13;5085921;28;20055;-67
2022/02/17 00:15:33;;;;;;;6.95;2.85;;;;;;;11.15;53.44;97569.13;5086986;28;20166;-67
2022/02/17 00:18:01;;;;;;;4.15;3.22;;;;;;;11.16;53.44;97569.94;5086769;28;20054;-67
2022/02/17 00:20:28;;;;;;;2.55;2.20;;;;;;;11.18;53.42;97560.84;5085155;28;20052;-68
2022/02/17 00:22:55;;;;;;;4.60;3.08;;;;;;;11.18;53.42;97563.50;5087188;28;20540;-67
2022/02/17 00:25:22;;;;;;;3.80;2.00;;;;;;;11.20;53.17;97565.94;5087744;28;20131;-68
2022/02/17 00:27:50;;;;;;;4.63;2.58;;;;;;;11.22;53.39;97561.31;5086679;28;20407;-68
2022/02/17 00:30:17;;;;;;;2.95;2.50;;;;;;;11.24;53.29;97552.19;5087656;28;20052;-69
2022/02/17 00:32:44;;;;;;;4.82;2.17;;;;;;;11.29;53.30;97556.94;5086444;28;20048;-68
2022/02/17 00:35:11;;;;;;;3.72;2.38;;;;;;;11.33;53.18;97562.69;5087564;28;20052;-70
2022/02/17 00:37:38;;;;;;;3.88;2.30;;;;;;;11.34;53.12;97567.75;5086964;28;20122;-68
2022/02/17 00:40:07;;;;;;;3.47;2.13;;;;;;;11.34;53.22;97564.31;5087254;28;20044;-66
2022/02/17 00:42:34;;;;;;;4.38;2.60;;;;;;;11.34;53.22;97559.00;5086666;28;20646;-70
2022/02/17 00:45:03;;;;;;;3.58;2.63;;;;;;;11.33;53.13;97545.00;5087065;28;20044;-69
2022/02/17 00:47:30;;;;;;;2.97;2.00;;;;;;;11.29;53.27;97523.41;5085225;28;20058;-66
2022/02/17 00:49:57;;;;;;;3.90;2.35;;;;;;;11.30;53.33;97505.72;5086631;28;20047;-67
2022/02/17 00:52:24;;;;;;;6.97;2.35;;;;;;;11.26;53.52;97462.19;5084257;28;20044;-66
2022/02/17 00:54:51;;;;;;;4.95;3.20;;;;;;;11.24;53.33;97430.66;5085889;28;20067;-68
2022/02/17 00:57:18;;;;;;;3.40;2.15;;;;;;;11.16;53.58;97401.69;5086681;28;20144;-68
2022/02/17 00:59:45;;;;;;;4.13;2.30;;;;;;;11.03;53.82;97398.88;5086905;28;20051;-67
2022/02/17 01:02:14;;;;;;;4.80;2.47;;;;;;;10.89;54.19;97430.41;5085085;28;20048;-66
2022/02/17 01:04:41;;;;;;;3.83;2.33;;;;;;;10.80;54.31;97413.00;5085681;28;20098;-70
2022/02/17 01:07:08;;;;;;;4.13;2.15;;;;;;;10.78;54.33;97406.28;5086042;28;20123;-66
2022/02/17 01:09:35;;;;;;;5.70;3.33;;;;;;;10.74;54.30;97421.66;5086363;28;20059;-66
2022/02/17 01:12:02;;;;;;;6.93;2.95;;;;;;;10.69;54.55;97413.47;5086008;28;20051;-67
2022/02/17 01:14:29;;;;;;;3.95;2.67;;;;;;;10.65;54.56;97386.63;5085809;28;20099;-66
2022/02/17 01:16:56;;;;;;;3.30;2.05;;;;;;;10.61;54.79;97376.63;5085596;28;20156;-67
2022/02/17 01:19:24;;;;;;;2.85;2.17;;;;;;;10.57;54.87;97359.50;5086830;28;20047;-67
2022/02/17 01:21:52;;;;;;;3.75;2.67;;;;;;;10.54;54.91;97344.03;5084903;28;20519;-66
2022/02/17 01:24:19;;;;;;;2.95;2.03;;;;;;;10.58;54.80;97332.09;5086245;28;20044;-66
2022/02/17 01:26:46;;;;;;;4.78;3.17;;;;;;;10.61;54.69;97314.09;5085456;28;20054;-66
2022/02/17 01:29:13;;;;;;;4.43;2.90;;;;;;;10.67;54.77;97286.94;5100450;28;20123;-67
2022/02/17 01:31:40;;;;;;;3.53;2.65;;;;;;;10.73;54.77;97276.66;5101974;28;20044;-67
2022/02/17 01:34:08;;;;;;;3.17;2.78;;;;;;;10.78;54.53;97277.72;5085990;28;20144;-68
2022/02/17 01:36:37;;;;;;;4.38;3.00;;;;;;;10.82;54.40;97267.63;5085610;28;20044;-67
2022/02/17 01:39:04;;;;;;;11.02;3.10;;;;;;;10.86;54.43;97251.22;5086098;28;20082;-68
2022/02/17 01:41:31;;;;;;;4.63;2.35;;;;;;;10.93;54.14;97258.41;5105696;28;20051;-67
2022/02/17 01:44:02;;;;;;;3.08;2.40;;;;;;;10.93;54.33;97234.63;5094105;28;20410;-67
2022/02/17 01:46:37;;;;;;;3.60;2.72;;;;;;;10.98;54.42;97229.59;5089553;28;20047;-67
2022/02/17 01:49:06;;;;;;;3.90;2.80;;;;;;;11.00;54.40;97223.16;5095785;28;20131;-66
2022/02/17 01:51:33;;;;;;;4.10;2.13;;;;;;;11.04;54.47;97207.75;5098251;28;20152;-67
2022/02/17 01:54:03;;;;;;;4.82;2.22;;;;;;;11.07;54.43;97187.06;5096714;28;20051;-71
2022/02/17 01:56:32;;;;;;;4.57;2.25;;;;;;;11.01;54.87;97174.59;5094961;28;20040;-68
2022/02/17 01:59:04;;;;;;;4.45;3.33;;;;;;;11.00;55.09;97167.69;5094877;28;20048;-67
2022/02/17 02:01:33;;;;;;;4.85;2.40;;;;;;;11.00;55.05;97161.56;5085613;28;20051;-68
2022/02/17 02:04:00;;;;;;;3.83;2.28;;;;;;;11.04;55.18;97149.63;5085865;28;20044;-67
2022/02/17 02:06:27;;;;;;;3.95;2.10;;;;;;;11.05;55.24;97138.06;5095634;28;20039;-68
2022/02/17 02:08:54;;;;;;;5.15;2.90;;;;;;;11.01;55.39;97144.72;5102108;28;20513;-66
2022/02/17 02:11:22;;;;;;;4.20;2.45;;;;;;;10.95;55.97;97137.56;5084408;28;20044;-66
2022/02/17 02:13:49;;;;;;;2.95;2.28;;;;;;;10.90;56.42;97112.53;5095009;28;20060;-66
2022/02/17 02:16:16;;;;;;;5.45;2.55;;;;;;;10.86;56.65;97113.94;5092487;28;20128;-66
2022/02/17 02:18:43;;;;;;;3.45;2.15;;;;;;;10.79;56.88;97112.25;5088100;28;20119;-67
2022/02/17 02:21:12;;;;;;;5.32;2.83;;;;;;;10.76;57.18;97100.22;5103141;28;20043;-66
2022/02/17 02:23:39;;;;;;;4.53;2.83;;;;;;;10.72;57.69;97091.06;5088767;28;20050;-68
2022/02/17 02:26:06;;;;;;;5.13;2.95;;;;;;;10.64;58.02;97072.72;5072632;28;20416;-67
2022/02/17 02:28:34;;;;;;;4.40;3.00;;;;;;;10.57;58.77;97077.13;5104381;28;20617;-67
2022/02/17 02:31:01;;;;;;;4.72;3.22;;;;;;;10.37;59.60;97055.81;5087245;28;20055;-68
2022/02/17 02:33:28;;;;;;;3.70;2.78;;;;;;;10.21;60.37;97041.88;5093273;28;20054;-68
2022/02/17 02:35:56;;;;;;;5.45;3.28;;;;;;;10.22;60.74;97029.47;5104502;28;20067;-69
2022/02/17 02:38:24;;;;;;;5.97;2.67;;;;;;;10.19;61.10;97025.41;5090840;28;20082;-68
2022/02/17 02:40:53;;;;;;;4.07;2.80;;;;;;;10.15;61.21;97013.59;5084706;28;20048;-68
2022/02/17 02:43:20;;;;;;;4.90;3.13;;;;;;;10.12;61.73;97004.25;5100470;28;20414;-67
2022/02/17 02:45:47;;;;;;;4.13;2.90;;;;;;;10.07;61.75;96990.81;5083445;28;20044;-67
2022/02/17 02:48:15;;;;;;;4.15;2.65;;;;;;;10.05;62.12;96971.72;5083660;28;20047;-69
2022/02/17 02:50:43;;;;;;;3.65;2.45;;;;;;;10.06;62.20;96972.53;5094004;28;20079;-67
2022/02/17 02:53:14;;;;;;;4.57;3.00;;;;;;;10.06;62.41;96970.69;5083824;28;20058;-67
2022/02/17 02:55:44;;;;;;;4.40;3.20;;;;;;;10.09;62.65;96966.88;5092021;28;20511;-69
2022/02/17 02:58:12;;;;;;;3.70;3.38;;;;;;;10.14;62.57;96972.41;5104056;28;20096;-68
2022/02/17 03:00:40;;;;;;;4.70;3.33;;;;;;;10.16;62.93;96970.41;5084857;28;20048;-68
2022/02/17 03:03:06;;;;;;;4.07;3.00;;;;;;;10.20;63.18;96955.81;5096460;28;20059;-69
2022/02/17 03:05:33;;;;;;;4.43;2.42;;;;;;;10.26;63.35;96946.31;5104837;28;20050;-67
2022/02/17 03:08:01;;;;;;;5.75;2.90;;;;;;;10.29;63.42;96924.84;5086180;28;20074;-70
2022/02/17 03:10:28;;;;;;;3.90;2.75;;;;;;;10.30;63.27;96950.25;5096877;28;20047;-67
2022/02/17 03:12:56;;;;;;;4.35;3.30;;;;;;;10.37;63.36;96950.31;5101695;28;20051;-67
2022/02/17 03:15:24;;;;;;;4.63;4.00;;;;;;;10.39;63.75;96948.28;5086957;28;20035;-67
2022/02/17 03:17:51;;;;;;;4.93;3.15;;;;;;;10.40;63.47;96934.91;5102745;28;20079;-67
2022/02/17 03:20:18;;;;;;;4.00;2.92;;;;;;;10.42;64.09;96932.88;5084128;28;20058;-69
2022/02/17 03:22:45;;;;;;;4.22;3.13;;;;;;;10.45;63.91;96943.06;5093521;28;20050;-68
2022/02/17 03:25:14;;;;;;;4.32;3.20;;;;;;;10.46;64.34;96930.69;5104092;28;20513;-69
2022/02/17 03:27:41;;;;;;;4.47;2.97;;;;;;;10.48;64.34;96931.34;5085249;28;20056;-70
2022/02/17 03:30:11;;;;;;;3.13;2.03;;;;;;;10.58;64.20;96909.88;5090913;28;20069;-68
2022/02/17 03:32:39;;;;;;;5.07;3.35;;;;;;;10.56;64.23;96901.34;5102808;28;20048;-68
2022/02/17 03:35:08;;;;;;;4.43;3.47;;;;;;;10.57;64.48;96908.22;5086612;28;20070;-69
2022/02/17 03:37:35;;;;;;;3.55;2.78;;;;;;;10.60;64.37;96887.53;5089183;28;20050;-68
2022/02/17 03:40:02;;;;;;;3.80;2.72;;;;;;;10.63;64.41;96884.53;5094155;28;20052;-68
2022/02/17 03:42:29;;;;;;;3.38;2.78;;;;;;;10.65;64.31;96876.41;5095793;28;20040;-68
2022/02/17 03:44:56;;;;;;;4.32;3.15;;;;;;;10.60;64.53;96860.34;5093211;28;20042;-67
2022/02/17 03:47:24;;;;;;;6.32;3.70;;;;;;;10.57;64.72;96852.81;5085488;28;20488;-68
2022/02/17 03:49:51;;;;;;;5.38;3.15;;;;;;;10.56;64.97;96859.13;5103370;28;20139;-68
2022/02/17 03:52:18;;;;;;;4.38;3.10;;;;;;;10.56;65.11;96848.56;5091148;28;20066;-65
2022/02/17 03:54:45;;;;;;;4.63;3.15;;;;;;;10.58;64.87;96841.25;5090217;28;20039;-68
2022/02/17 03:57:12;;;;;;;3.80;3.05;;;;;;;10.60;64.95;96810.22;5105703;28;20426;-68
2022/02/17 03:59:39;;;;;;;3.25;2.65;;;;;;;10.60;64.94;96824.22;5087187;28;20044;-67
2022/02/17 04:02:06;;;;;;;6.10;3.53;;;;;;;10.67;65.05;96824.25;5101103;28;20044;-68
2022/02/17 04:04:34;;;;;;;3.85;2.75;;;;;;;10.67;64.94;96811.06;5095310;28;20130;-68
2022/02/17 04:07:01;;;;;;;4.25;3.58;;;;;;;10.68;65.34;96810.06;5087120;28;20052;-66
2022/02/17 04:09:28;;;;;;;5.45;3.67;;;;;;;10.69;65.24;96804.56;5087864;28;20499;-68
2022/02/17 04:11:55;;;;;;;5.22;3.80;;;;;;;10.66;65.25;96775.09;5087406;28;20072;-68
2022/02/17 04:14:22;;;;;;;4.82;3.53;;;;;;;10.66;65.40;96789.13;5087403;28;20055;-68
2022/02/17 04:16:49;;;;;;;5.28;4.25;;;;;;;10.68;65.42;96768.63;5087807;28;20522;-67
2022/02/17 04:19:18;;;;;;;4.45;2.97;;;;;;;10.74;65.42;96763.56;5087712;28;20044;-68
2022/02/17 04:21:46;;;;;;;3.30;3.00;;;;;;;10.82;65.22;96758.09;5085621;28;20556;-67
2022/02/17 04:24:13;;;;;;;3.55;3.15;;;;;;;10.87;65.03;96748.56;5087867;28;20044;-68
2022/02/17 04:26:40;;;;;;;4.15;3.22;;;;;;;10.93;65.01;96739.06;5088035;28;20058;-68
2022/02/17 04:29:07;;;;;;;4.53;3.28;;;;;;;11.04;64.72;96749.03;5087254;28;20078;-67
2022/02/17 04:31:34;;;;;;;4.93;3.10;;;;;;;11.13;64.57;96711.84;5087918;28;20054;-66
2022/02/17 04:34:01;;;;;;;4.25;2.70;;;;;;;11.23;64.31;96720.19;5087741;28;20070;-69
2022/02/17 04:36:28;;;;;;;6.80;3.03;;;;;;;11.35;63.70;96699.28;5086611;28;20452;-68
2022/02/17 04:38:56;;;;;;;3.85;2.55;;;;;;;11.42;63.66;96689.53;5087558;28;20044;-66
2022/02/17 04:44:08;;;;;;;3.92;2.92;;;;;;;11.44;63.50;96700.72;5086801;28;20047;-68
2022/02/17 04:46:35;;;;;;;5.07;2.53;;;;;;;11.46;63.39;96698.66;5085915;28;20070;-67
2022/02/17 04:49:02;;;;;;;4.88;2.72;;;;;;;11.50;63.45;96689.31;5086754;28;20056;-68
2022/02/17 04:51:29;;;;;;;3.40;2.88;;;;;;;11.54;63.26;96713.50;5084782;28;20065;-69
2022/02/17 04:53:58;;;;;;;4.10;2.83;;;;;;;11.56;63.45;96751.94;5087084;28;20043;-68
2022/02/17 04:56:25;;;;;;;4.72;3.40;;;;;;;11.57;63.37;96755.38;5086051;28;20507;-69
2022/02/17 04:58:52;;;;;;;4.93;2.67;;;;;;;11.58;63.43;96771.03;5086687;28;20059;-70
2022/02/17 05:01:18;;;;;;;5.65;3.55;;;;;;;11.56;63.71;96799.50;5086712;28;20123;-66
2022/02/17 05:03:45;;;;;;;4.82;2.88;;;;;;;11.55;63.89;96824.28;5086719;28;20058;-69
2022/02/17 05:06:12;;;;;;;5.47;3.25;;;;;;;11.46;65.00;96867.78;5086463;28;20040;-69
2022/02/17 05:08:39;;;;;;;10.20;1.30;;;;;;;11.26;64.58;96939.88;5085881;28;20044;-70
2022/02/17 05:11:08;;;;;;;4.47;2.40;;;;;;;10.82;63.37;96917.34;5087780;28;20724;-67
2022/02/17 05:13:35;;;;;;;4.47;1.65;;;;;;;10.27;64.26;96974.34;5084978;28;20048;-68
2022/02/17 05:16:02;;;;;;;3.28;1.92;;;;;;;10.16;63.35;96995.97;5083785;28;20058;-68
2022/02/17 05:18:29;;;;;;;4.28;1.67;;;;;;;9.62;62.14;96966.41;5084066;28;20403;-67
2022/02/17 05:20:56;;;;;;;3.15;0.95;;;;;;;9.44;62.47;97005.53;5046864;28;20036;-73
2022/02/17 05:23:23;;;;;;;2.97;2.08;;;;;;;9.29;62.89;97016.88;5084993;28;20044;-69
2022/02/17 05:25:49;;;;;;;2.42;1.48;;;;;;;9.06;64.31;97022.25;5083980;28;20055;-70
2022/02/17 05:28:18;;;;;;;3.97;2.10;;;;;;;8.96;64.08;97000.63;5084798;28;20048;-74
2022/02/17 05:30:45;;;;;;;3.47;1.85;;;;;;;8.93;64.25;96991.28;5084546;28;20115;-69
2022/02/17 05:33:14;;;;;;;3.80;1.48;;;;;;;8.88;64.14;96974.41;5084798;28;20105;-72
2022/02/17 05:35:42;;;;;;;5.93;1.23;;;;;;;8.80;64.08;96938.44;5085537;28;20044;-69
2022/02/17 05:38:09;;;;;;;2.35;1.20;;;;;;;8.71;63.60;96924.56;5085085;28;20262;-68
2022/02/17 05:40:37;;;;;;;0.55;0.52;;;;;;;8.76;63.73;96984.56;5083886;28;20163;-72
2022/02/17 05:43:05;;;;;;;3.55;1.02;;;;;;;8.77;64.07;96962.53;5084199;28;20664;-72
2022/02/17 05:45:33;;;;;;;4.22;1.85;;;;;;;8.82;64.10;96957.50;5084278;28;20043;-71
2022/02/17 05:48:01;;;;;;;2.45;1.67;;;;;;;8.83;63.88;96911.78;5084137;28;20055;-72
2022/02/17 05:50:29;;;;;;;1.85;1.10;;;;;;;8.89;63.90;96889.97;5083967;28;20488;-72
2022/02/17 05:52:55;;;;;;;3.08;1.42;;;;;;;8.92;63.59;96868.56;5082473;28;20147;-71
2022/02/17 05:55:22;;;;;;;2.85;2.60;;;;;;;8.95;63.50;96826.09;5085005;28;20702;-71
2022/02/17 05:57:50;;;;;;;4.78;2.08;;;;;;;8.93;63.43;96857.06;5085262;28;20063;-73
2022/02/17 06:00:19;;;;;;;2.38;1.40;;;;;;;8.91;63.58;96818.75;5099391;28;20054;-71
2022/02/17 06:02:47;;;;;;;2.22;1.08;;;;;;;8.91;63.70;96810.84;5086894;28;20048;-70
2022/02/17 06:05:16;;;;;;;3.88;1.63;;;;;;;8.88;63.58;96841.00;5097397;28;20088;-71
2022/02/17 06:07:45;;;;;;;5.10;1.80;;;;;;;8.84;63.59;96870.50;5102153;28;20059;-70
2022/02/17 06:10:12;;;;;;;6.55;2.85;;;;;;;8.77;63.77;96870.41;5096925;28;20066;-70
2022/02/17 06:12:44;;;;;;;4.78;2.00;;;;;;;8.70;63.70;96886.13;5091725;28;20043;-70
2022/02/17 06:15:11;;;;;;;5.63;2.80;;;;;;;8.61;63.68;96888.00;5091440;28;20506;-72
2022/02/17 06:17:39;;;;;;;5.00;2.15;;;;;;;8.54;63.96;96895.00;5101146;28;20048;-70
2022/02/17 06:20:09;;;;;;;3.08;1.77;;;;;;;8.49;64.09;96873.69;5092782;28;20047;-70
2022/02/17 06:22:45;;;;;;;5.15;2.33;;;;;;;8.51;64.08;96840.13;5087659;28;20050;-76
2022/02/17 06:25:11;;;;;;;9.52;2.83;;;;;;;8.66;63.70;96842.75;5095214;28;20059;-68
2022/02/17 06:27:38;;;;;;;4.68;2.45;;;;;;;8.70;63.53;96864.25;5093247;28;20048;-70
2022/02/17 06:30:07;;;;;;;8.55;2.90;;;;;;;8.72;63.68;96878.84;5094295;28;20685;-69
2022/02/17 06:32:35;;;;;;;6.57;3.35;;;;;;;8.78;63.46;96848.34;5090815;28;20052;-70
2022/02/17 06:35:02;;;;;;;6.85;3.22;;;;;;;8.83;63.33;96890.72;5088158;28;20053;-72
2022/02/17 06:37:30;;;;;;;8.30;4.22;;;;;;;8.86;63.31;96889.53;5100789;28;20131;-72
2022/02/17 06:39:57;;;;;;;9.07;3.90;;;;;;;8.92;63.07;96817.75;5085759;28;20050;-71
2022/02/17 06:42:24;;;;;;;3.30;1.27;;;;;;;8.95;62.89;96868.22;5099242;28;20062;-71
2022/02/17 06:44:51;;;;;;;1.92;1.70;;;;;;;8.99;62.74;96860.75;5070097;28;20101;-71
2022/02/17 06:47:18;;;;;;;2.72;1.50;;;;;;;9.03;62.67;96796.22;5100332;28;20510;-70
2022/02/17 06:49:45;;;;;;;2.88;1.50;;;;;;;9.03;62.71;96774.34;5084898;28;20059;-70
2022/02/17 06:52:12;;;;;;;2.88;1.60;;;;;;;8.96;62.72;96805.84;5076793;28;20050;-71
2022/02/17 06:54:41;;;;;;;3.45;1.00;;;;;;;8.95;62.71;96862.94;5100865;28;20051;-72
2022/02/17 06:57:09;;;;;;;4.10;1.55;;;;;;;9.04;62.72;96882.09;5106215;28;20414;-72
2022/02/17 06:59:35;;;;;;;7.55;3.15;;;;;;;9.10;62.39;96881.34;5106726;28;20092;-71
2022/02/17 07:02:03;;;;;;;8.15;2.80;;;;;;;9.12;62.41;96904.84;5106877;28;20383;-70
2022/02/17 07:04:30;;;;;;;6.43;2.95;;;;;;;9.14;62.38;96908.94;5105499;28;20082;-72
2022/02/17 07:06:57;;;;;;;6.10;2.60;;;;;;;9.16;62.18;96937.72;5104571;28;20062;-72
2022/02/17 07:09:24;;;;;;;10.80;5.00;;;;;;;9.15;62.25;96965.06;5106682;28;20044;-70
2022/02/17 07:11:54;;;;;;;6.20;3.33;;;;;;;9.16;62.04;96964.03;5104248;28;20134;-70
2022/02/17 07:14:23;;;;;;;8.65;4.00;;;;;;;9.16;61.95;96956.13;5103251;28;20043;-73
2022/02/17 07:16:53;;;;;;;7.93;2.88;;;;;;;9.18;61.96;96936.53;5103885;28;20044;-71
2022/02/17 07:19:20;;;;;;;6.93;3.95;;;;;;;9.21;61.86;96922.19;5104554;28;20435;-72
2022/02/17 07:21:50;;;;;;;11.25;4.95;;;;;;;9.23;61.87;96922.81;5102455;28;20055;-74
2022/02/17 07:24:17;;;;;;;9.55;4.35;;;;;;;9.23;61.71;96925.44;5103338;28;20052;-71
2022/02/17 07:26:44;;;;;;;8.77;3.38;;;;;;;9.28;61.71;96932.78;5104026;28;20048;-71
2022/02/17 07:29:14;;;;;;;10.10;4.18;;;;;;;9.33;61.61;96919.91;5104499;28;20047;-73
2022/02/17 07:31:42;;;;;;;8.98;4.03;;;;;;;9.36;61.45;96925.59;5107064;28;20568;-71
2022/02/17 07:34:09;;;;;;;8.13;3.10;;;;;;;9.41;61.21;96932.13;5107918;28;20044;-74
2022/02/17 07:36:38;;;;;;;9.40;4.47;;;;;;;9.45;61.11;96914.94;5107654;28;20054;-73
2022/02/17 07:39:06;;;;;;;7.63;3.25;;;;;;;9.48;60.94;96927.75;5106753;28;20402;-74
2022/02/17 07:41:36;;;;;;;6.72;3.28;;;;;;;9.48;60.93;96928.56;5105096;28;20044;-71
2022/02/17 07:44:04;;;;;;;8.95;3.08;;;;;;;9.52;60.99;96944.81;5106912;28;20048;-71
2022/02/17 07:46:33;;;;;;;5.53;3.25;;;;;;;9.52;61.08;96937.72;5106585;28;20040;-72
2022/02/17 07:49:00;;;;;;;10.52;3.63;;;;;;;9.54;60.98;96941.00;5106518;28;20054;-71
2022/02/17 07:51:27;;;;;;;8.70;3.80;;;;;;;9.53;61.49;96944.63;5104206;28;20070;-72
2022/02/17 07:53:54;;;;;;;8.68;3.65;;;;;;;9.52;61.14;96961.44;5106924;28;20047;-73
2022/02/17 07:56:21;;;;;;;11.98;5.82;;;;;;;9.59;61.15;96963.34;5106381;28;20064;-75
2022/02/17 07:58:48;;;;;;;10.18;4.32;;;;;;;9.62;61.18;96979.59;5104613;28;20040;-74
2022/02/17 08:01:16;;;;;;;11.88;5.88;;;;;;;9.61;61.12;96959.50;5106152;28;20051;-72
2022/02/17 08:03:44;;;;;;;5.15;2.97;;;;;;;9.64;61.03;96953.88;5105757;28;20058;-73
2022/02/17 08:06:12;;;;;;;8.95;4.35;;;;;;;9.63;60.88;96956.69;5105028;28;20059;-72
2022/02/17 08:08:41;;;;;;;7.25;3.08;;;;;;;9.65;60.82;96959.94;5105187;28;20723;-72
2022/02/17 08:11:08;;;;;;;11.07;5.10;;;;;;;9.72;60.66;96955.56;5105372;28;20122;-72
2022/02/17 08:13:35;;;;;;;12.48;4.65;;;;;;;9.79;60.60;96955.63;5104825;28;20066;-72
2022/02/17 08:16:02;;;;;;;10.73;4.82;;;;;;;9.86;60.29;96951.25;5104213;28;20048;-72
2022/02/17 08:18:29;;;;;;;9.75;4.00;;;;;;;9.93;60.09;96937.13;5103664;28;20060;-74
2022/02/17 08:20:58;;;;;;;9.82;3.85;;;;;;;9.98;59.85;96926.03;5102271;28;20044;-72
2022/02/17 08:23:25;;;;;;;12.43;4.88;;;;;;;10.05;59.75;96936.63;5103454;28;20487;-73
2022/02/17 08:25:52;;;;;;;8.40;5.00;;;;;;;10.09;59.73;96922.88;5104252;28;20048;-72
2022/02/17 08:28:19;;;;;;;10.68;4.57;;;;;;;10.15;59.61;96929.19;5104302;28;20495;-73
2022/02/17 08:30:46;;;;;;;10.90;4.30;;;;;;;10.26;59.51;96930.50;5104721;28;20043;-76
2022/02/17 08:33:13;;;;;;;11.07;4.05;;;;;;;10.30;59.22;96956.31;5103211;28;20050;-72
2022/02/17 08:35:42;;;;;;;4.80;2.72;;;;;;;10.42;59.25;96955.81;5104784;28;20116;-73
2022/02/17 08:38:10;;;;;;;9.32;4.53;;;;;;;10.41;59.06;96967.41;5104812;28;20130;-75
2022/02/17 08:40:39;;;;;;;7.28;3.35;;;;;;;10.38;59.18;96944.84;5102711;28;20574;-75
2022/02/17 08:43:13;;;;;;;18.75;7.97;;;;;;;10.43;59.09;96917.91;5087528;28;20557;-74
2022/02/17 08:45:42;;;;;;;24.02;9.98;;;;;;;10.46;59.17;96907.78;5104320;28;20047;-73
2022/02/17 08:48:10;;;;;;;15.13;9.05;;;;;;;10.46;58.91;96907.78;5103828;28;20130;-72
2022/02/17 08:50:39;;;;;;;10.73;4.65;;;;;;;10.47;58.97;96919.13;5104391;28;20050;-72
2022/02/17 08:53:06;;;;;;;10.02;4.03;;;;;;;10.38;59.07;96938.75;5103064;28;20039;-75
2022/02/17 08:55:34;;;;;;;9.18;4.32;;;;;;;10.29;59.33;96925.66;5103308;28;20667;-72
2022/02/17 08:58:01;;;;;;;10.30;4.15;;;;;;;10.31;59.44;96926.31;5104529;28;20130;-73
2022/02/17 09:00:29;;;;;;;12.43;4.32;;;;;;;10.79;58.93;96914.25;5104619;28;20302;-72
2022/02/17 09:02:56;;;;;;;8.18;3.50;;;;;;;11.35;57.81;96923.88;5103979;28;20047;-73
2022/02/17 09:05:24;;;;;;;7.03;3.10;;;;;;;11.83;57.20;96924.59;5102984;28;20052;-71
2022/02/17 09:07:51;;;;;;;6.28;3.30;;;;;;;11.97;56.54;96929.94;5104285;28;20054;-74
2022/02/17 09:10:18;;;;;;;13.00;4.38;;;;;;;11.96;56.64;96930.97;5104400;28;20074;-71
2022/02/17 09:12:47;;;;;;;10.93;4.05;;;;;;;11.95;56.81;96916.91;5103502;28;20051;-73
2022/02/17 09:15:15;;;;;;;7.97;3.33;;;;;;;12.07;56.47;96921.59;5103421;28;20063;-72
2022/02/17 09:17:42;;;;;;;8.15;4.00;;;;;;;12.26;56.19;96920.78;5103694;28;20467;-72
2022/02/17 09:20:11;;;;;;;8.90;4.80;;;;;;;12.19;56.10;96928.75;5104556;28;20055;-72
2022/02/17 09:22:38;;;;;;;11.98;4.13;;;;;;;11.94;56.53;96948.84;5102543;28;20040;-71
2022/02/17 09:25:06;;;;;;;15.77;3.70;;;;;;;11.82;57.12;96944.09;5104465;28;20487;-74
2022/02/17 09:27:34;;;;;;;7.70;3.55;;;;;;;11.92;57.14;96938.47;5103698;28;20047;-72
2022/02/17 09:30:03;;;;;;;10.50;5.47;;;;;;;11.85;57.19;96938.44;5102604;28;20717;-72
2022/02/17 09:32:30;;;;;;;8.07;4.55;;;;;;;11.70;57.44;96926.41;5103576;28;20050;-75
2022/02/17 09:34:57;;;;;;;7.63;4.30;;;;;;;11.80;57.51;96954.06;5102645;28;20126;-73
2022/02/17 09:37:24;;;;;;;8.80;3.53;;;;;;;11.89;57.22;96930.09;5103017;28;20044;-74
2022/02/17 09:39:52;;;;;;;9.48;4.22;;;;;;;11.92;56.78;96938.47;5103026;28;20044;-71
2022/02/17 09:42:20;;;;;;;7.18;3.60;;;;;;;12.13;56.46;96949.88;5101842;28;20073;-72
2022/02/17 09:44:47;;;;;;;7.05;3.35;;;;;;;12.34;55.93;96943.59;5103000;28;20353;-74
2022/02/17 09:47:16;;;;;;;7.35;3.50;;;;;;;12.31;55.49;96926.28;5100789;28;20155;-72
2022/02/17 09:49:44;;;;;;;8.77;3.90;;;;;;;12.45;55.60;96921.78;5102136;28;20044;-72
2022/02/17 09:52:11;;;;;;;7.88;4.50;;;;;;;12.54;54.08;96914.47;5099408;28;20051;-73
2022/02/17 09:54:38;;;;;;;9.18;4.70;;;;;;;12.70;53.19;96913.22;5081145;28;20101;-71
2022/02/17 09:57:05;;;;;;;17.77;5.30;;;;;;;13.03;52.14;96899.06;5082103;28;20040;-73
2022/02/17 09:59:32;;;;;;;6.38;2.40;;;;;;;13.52;49.85;96902.94;5081136;28;20076;-72
2022/02/17 10:02:02;;;;;;;6.90;3.47;;;;;;;13.87;47.80;96903.38;5080592;28;20143;-70
2022/02/17 10:04:33;;;;;;;9.02;3.00;;;;;;;13.64;49.36;96908.41;5081556;28;20074;-71
2022/02/17 10:07:06;;;;;;;5.55;2.92;;;;;;;13.37;50.31;96900.59;5081512;28;20052;-74
2022/02/17 10:09:40;;;;;;;10.77;5.03;;;;;;;13.10;50.83;96919.22;5080065;28;20050;-70
2022/02/17 10:12:09;;;;;;;6.50;3.55;;;;;;;12.85;51.25;96902.38;5082061;28;20052;-73
2022/02/17 10:14:36;;;;;;;7.95;3.40;;;;;;;12.65;51.94;96923.63;5081552;28;20123;-72
2022/02/17 10:17:05;;;;;;;10.55;5.22;;;;;;;12.16;53.60;96915.09;5081137;28;20463;-71
2022/02/17 10:19:41;;;;;;;10.45;3.63;;;;;;;11.47;56.01;96904.59;5081496;28;20097;-72
2022/02/17 10:22:10;;;;;;;7.25;4.05;;;;;;;11.00;57.28;96902.78;5079200;28;20576;-70
2022/02/17 10:24:40;;;;;;;8.70;3.60;;;;;;;10.78;58.10;96899.44;5081697;28;20058;-73
2022/02/17 10:27:12;;;;;;;6.78;3.40;;;;;;;10.57;59.31;96910.88;5079501;28;20048;-72
2022/02/17 10:29:40;;;;;;;6.45;3.90;;;;;;;10.46;59.55;96894.59;5080332;28;20044;-73
2022/02/17 10:32:10;;;;;;;7.05;4.15;;;;;;;10.38;60.02;96893.91;5079907;28;20052;-74
2022/02/17 10:34:43;;;;;;;9.57;4.05;;;;;;;10.28;60.26;96889.75;5079710;28;20048;-74
2022/02/17 10:37:10;;;;;;;9.32;3.33;;;;;;;10.23;60.49;96893.97;5079498;28;20638;-75
2022/02/17 10:39:42;;;;;;;4.53;1.92;;;;;;;10.14;60.43;96891.47;5079684;28;20127;-72
2022/02/17 10:42:10;;;;;;;11.30;3.25;;;;;;;9.99;60.24;96921.56;5079557;28;20249;-75
2022/02/17 10:44:40;;;;;;;6.80;2.30;;;;;;;9.60;59.97;96980.75;5079416;28;20040;-73
2022/02/17 10:47:17;;;;;;;11.98;5.78;;;;;;;9.01;62.80;96960.63;5080162;28;20048;-71
2022/02/17 10:49:49;;;;;;;10.93;6.40;;;;;;;8.73;64.45;96963.84;5079581;28;20044;-72
2022/02/17 10:52:32;;;;;;;10.45;6.53;;;;;;;8.52;65.08;96919.88;5078499;28;20153;-73
2022/02/17 10:55:16;;;;;;;7.25;3.45;;;;;;;8.45;64.10;96925.00;5078003;28;20128;-73
2022/02/17 10:57:44;;;;;;;11.57;6.38;;;;;;;8.42;64.65;96946.41;5079474;28;20040;-76
2022/02/17 11:00:19;;;;;;;8.38;3.40;;;;;;;8.51;64.50;96950.59;5079259;28;20044;-71
2022/02/17 11:02:48;;;;;;;9.32;3.55;;;;;;;8.70;64.19;96937.94;5080068;28;20132;-71
2022/02/17 11:05:17;;;;;;;11.35;4.38;;;;;;;8.94;63.82;96945.53;5078895;28;20131;-73
2022/02/17 11:07:46;;;;;;;6.75;3.63;;;;;;;9.19;63.52;96934.72;5079222;28;20691;-73
2022/02/17 11:10:14;;;;;;;12.18;5.03;;;;;;;9.27;63.56;96934.59;5079780;28;20040;-74
2022/02/17 11:12:42;;;;;;;16.23;7.10;;;;;;;9.33;63.66;96943.59;5081414;28;20123;-73
2022/02/17 11:15:10;;;;;;;12.55;5.38;;;;;;;9.48;63.58;96919.84;5081110;28;20048;-71
2022/02/17 11:17:40;;;;;;;15.25;5.88;;;;;;;9.60;62.93;96934.16;5079399;28;20056;-73
2022/02/17 11:20:17;;;;;;;6.40;2.55;;;;;;;9.91;62.21;96915.41;5079856;28;20456;-75
2022/02/17 11:22:47;;;;;;;12.85;5.60;;;;;;;10.06;61.47;96917.97;5078111;28;20480;-71
2022/02/17 11:25:14;;;;;;;8.32;3.83;;;;;;;10.14;61.27;96920.47;5079133;28;20052;-75
2022/02/17 11:28:01;;;;;;;14.73;6.95;;;;;;;10.23;60.41;96912.44;5080062;28;20055;-74
2022/02/17 11:30:29;;;;;;;6.35;3.03;;;;;;;10.38;60.16;96909.75;5080184;28;20044;-74
2022/02/17 11:33:27;;;;;;;15.48;5.07;;;;;;;10.47;57.59;96927.84;5081260;28;20119;-73
2022/02/17 11:35:58;;;;;;;10.32;2.92;;;;;;;10.50;57.44;96930.13;5039530;28;20044;-73
2022/02/17 11:38:49;;;;;;;7.80;2.42;;;;;;;10.54;57.16;96935.81;5036561;28;20411;-73
2022/02/17 11:41:17;;;;;;;5.85;2.40;;;;;;;10.61;56.10;96939.31;5036946;28;20493;-72